Time;durP1;ratioP1;P1;durP2;ratioP2;P2;SDS_P1;SDS_P2;PMS_P1;PMS_P2;Temp;Humidity;BMP_temperature;BMP_pressure;BME280_temperature;BME280_humidity;BME280_pressure;Samples;Min_cycle;Max_cycle;Signal;HPM_P1;HPM_P2
2022/08/27 00:02:18;;;;;;;;;;;;;;;19.74;61.40;97519.31;6219644;28;20342;-66
2022/08/27 00:05:20;;;;;;;;;;;;;;;19.80;60.35;97523.25;6219503;28;19926;-66
2022/08/27 00:08:21;;;;;;;;;;;;;;;19.87;59.84;97518.16;6216299;28;19932;-66
2022/08/27 00:11:26;;;;;;;;;;;;;;;19.92;59.26;97521.25;6218252;28;20423;-67
2022/08/27 00:14:28;;;;;;;;;;;;;;;19.78;58.83;97529.69;6218664;28;20373;-66
2022/08/27 00:17:31;;;;;;;;;;;;;;;19.66;58.80;97526.34;6217494;28;20298;-66
2022/08/27 00:20:37;;;;;;;;;;;;;;;19.55;59.34;97532.63;6218329;28;20043;-66
2022/08/27 00:23:43;;;;;;;;;;;;;;;19.40;60.06;97526.00;6214207;28;19925;-66
2022/08/27 00:26:49;;;;;;;;;;;;;;;19.37;60.69;97532.47;6215149;28;19925;-67
2022/08/27 00:29:53;;;;;;;;;;;;;;;19.33;61.01;97536.38;6219012;28;19922;-66
2022/08/27 00:32:55;;;;;;;;;;;;;;;19.34;60.94;97526.56;6216222;28;21328;-66
2022/08/27 00:35:56;;;;;;;;;;;;;;;19.34;60.64;97526.56;6218986;28;19935;-66
2022/08/27 00:38:58;;;;;;;;;;;;;;;19.24;60.01;97527.38;6218218;28;19925;-66
2022/08/27 00:42:03;;;;;;;;;;;;;;;19.13;60.53;97530.16;6217416;28;19960;-66
2022/08/27 00:45:05;;;;;;;;;;;;;;;19.06;60.78;97534.38;6211593;28;19925;-66
2022/08/27 00:48:11;;;;;;;;;;;;;;;18.97;61.40;97541.34;6218743;28;20344;-66
2022/08/27 00:51:14;;;;;;;;;;;;;;;18.83;62.48;97544.41;6218375;28;19932;-66
2022/08/27 00:54:16;;;;;;;;;;;;;;;18.70;63.24;97549.06;6217657;28;19932;-66
2022/08/27 00:57:18;;;;;;;;;;;;;;;18.57;63.67;97550.16;6217505;28;19925;-67
2022/08/27 01:00:21;;;;;;;;;;;;;;;18.51;63.25;97549.81;6216363;28;19922;-67
2022/08/27 01:03:24;;;;;;;;;;;;;;;18.47;63.97;97553.75;6219319;28;20016;-67
2022/08/27 01:06:31;;;;;;;;;;;;;;;18.47;63.81;97546.59;6218891;28;19922;-66
2022/08/27 01:09:34;;;;;;;;;;;;;;;18.47;64.12;97554.56;6218904;28;19925;-66
2022/08/27 01:12:36;;;;;;;;;;;;;;;18.31;63.47;97552.38;6217161;28;19937;-67
2022/08/27 01:15:40;;;;;;;;;;;;;;;18.20;64.18;97551.59;6216166;28;19999;-67
2022/08/27 01:18:45;;;;;;;;;;;;;;;18.10;64.79;97556.88;6217387;28;19956;-66
2022/08/27 01:22:00;;;;;;;;;;;;;;;18.03;64.33;97561.03;6219361;28;19930;-66
2022/08/27 01:25:07;;;;;;;;;;;;;;;18.00;64.82;97563.94;6217943;28;19932;-66
2022/08/27 01:28:11;;;;;;;;;;;;;;;17.97;64.94;97564.19;6222284;28;19932;-66
2022/08/27 01:31:12;;;;;;;;;;;;;;;17.98;65.44;97571.25;6221358;28;19926;-66
2022/08/27 01:34:13;;;;;;;;;;;;;;;18.00;65.68;97577.25;6214998;28;20022;-66
2022/08/27 01:37:20;;;;;;;;;;;;;;;18.00;65.79;97580.75;6222798;28;19932;-67
2022/08/27 01:40:21;;;;;;;;;;;;;;;17.98;65.49;97580.06;6223404;28;19925;-66
2022/08/27 01:43:22;;;;;;;;;;;;;;;17.97;65.55;97580.19;6223442;28;19925;-66
2022/08/27 01:46:25;;;;;;;;;;;;;;;17.87;65.38;97582.78;6219114;28;19932;-67
2022/08/27 01:49:29;;;;;;;;;;;;;;;17.87;64.72;97583.63;6218945;28;19928;-67
2022/08/27 01:52:30;;;;;;;;;;;;;;;17.88;64.38;97579.13;6221251;28;19931;-66
2022/08/27 01:55:34;;;;;;;;;;;;;;;17.88;64.21;97579.97;6222471;28;19926;-66
2022/08/27 01:58:37;;;;;;;;;;;;;;;17.86;64.28;97581.94;6222616;28;21684;-67
2022/08/27 02:01:39;;;;;;;;;;;;;;;17.81;64.33;97586.78;6219577;28;19929;-66
2022/08/27 02:04:43;;;;;;;;;;;;;;;17.79;64.55;97593.22;6222289;28;19925;-66
2022/08/27 02:07:46;;;;;;;;;;;;;;;17.78;64.48;97592.38;6233065;28;19929;-67
2022/08/27 02:10:50;;;;;;;;;;;;;;;17.80;64.63;97598.41;6222219;28;19925;-66
2022/08/27 02:13:52;;;;;;;;;;;;;;;17.92;65.38;97601.88;6220668;28;19925;-67
2022/08/27 02:16:53;;;;;;;;;;;;;;;17.97;65.17;97598.81;6220338;28;19972;-67
2022/08/27 02:19:57;;;;;;;;;;;;;;;18.05;65.40;97604.34;6222014;28;19925;-65
2022/08/27 02:23:05;;;;;;;;;;;;;;;18.02;65.00;97610.78;6217766;28;20427;-66
2022/08/27 02:26:06;;;;;;;;;;;;;;;18.04;64.85;97610.66;6220731;28;19933;-66
2022/08/27 02:29:07;;;;;;;;;;;;;;;18.07;64.80;97607.75;6220004;28;19961;-66
2022/08/27 02:32:08;;;;;;;;;;;;;;;18.12;64.42;97610.88;6220135;28;19925;-66
2022/08/27 02:35:10;;;;;;;;;;;;;;;18.23;64.55;97605.50;6220243;28;20410;-66
2022/08/27 02:38:13;;;;;;;;;;;;;;;18.35;64.87;97612.44;6219826;28;19925;-66
2022/08/27 02:41:15;;;;;;;;;;;;;;;18.44;64.27;97618.78;6219759;28;19932;-66
2022/08/27 02:44:16;;;;;;;;;;;;;;;18.55;64.65;97616.06;6218517;28;19929;-66
2022/08/27 02:47:22;;;;;;;;;;;;;;;18.62;64.47;97617.22;6220210;28;19926;-66
2022/08/27 02:50:23;;;;;;;;;;;;;;;18.74;64.42;97620.69;6218509;28;19926;-65
2022/08/27 02:53:24;;;;;;;;;;;;;;;18.96;63.63;97617.00;6218101;28;19926;-66
2022/08/27 02:56:28;;;;;;;;;;;;;;;19.13;62.88;97620.84;6218979;28;19925;-66
2022/08/27 02:59:32;;;;;;;;;;;;;;;19.26;62.08;97621.47;6221441;28;19925;-66
2022/08/27 03:02:33;;;;;;;;;;;;;;;19.40;61.34;97622.09;6221073;28;19921;-66
2022/08/27 03:05:39;;;;;;;;;;;;;;;19.68;60.10;97621.31;6221216;28;19930;-67
2022/08/27 03:08:41;;;;;;;;;;;;;;;19.81;59.54;97615.72;6219261;28;20295;-67
2022/08/27 03:11:42;;;;;;;;;;;;;;;20.01;58.62;97611.22;6221028;28;20011;-66
2022/08/27 03:14:48;;;;;;;;;;;;;;;20.15;57.60;97618.81;6218087;28;20390;-66
2022/08/27 03:21:14;;;;;;;;;;;;;;;20.34;56.86;97623.31;6236195;28;19932;-67
2022/08/27 03:24:18;;;;;;;;;;;;;;;20.44;56.58;97617.09;6219081;28;19932;-66
2022/08/27 03:27:21;;;;;;;;;;;;;;;20.70;55.42;97617.38;6218750;28;19933;-67
2022/08/27 03:30:25;;;;;;;;;;;;;;;20.89;54.79;97625.34;6219349;28;19925;-67
2022/08/27 03:33:38;;;;;;;;;;;;;;;21.08;54.35;97627.94;6216597;28;20268;-67
2022/08/27 03:36:41;;;;;;;;;;;;;;;21.28;53.61;97622.50;6217215;28;19925;-66
2022/08/27 03:39:42;;;;;;;;;;;;;;;21.41;53.78;97619.53;6220481;28;19926;-66
2022/08/27 03:42:46;;;;;;;;;;;;;;;21.48;53.53;97624.09;6218923;28;19926;-67
2022/08/27 03:45:48;;;;;;;;;;;;;;;21.63;52.79;97615.59;6218877;28;20022;-67
2022/08/27 03:48:49;;;;;;;;;;;;;;;21.68;52.48;97618.63;6214092;28;20420;-66
2022/08/27 03:51:51;;;;;;;;;;;;;;;21.77;52.60;97623.09;6217992;28;19984;-66
2022/08/27 03:54:54;;;;;;;;;;;;;;;21.95;52.05;97637.34;6214937;28;19927;-67
2022/08/27 03:57:56;;;;;;;;;;;;;;;22.02;51.99;97634.06;6217893;28;19925;-67
2022/08/27 04:00:58;;;;;;;;;;;;;;;22.18;51.84;97634.25;6218559;28;19960;-67
2022/08/27 04:04:01;;;;;;;;;;;;;;;22.32;51.40;97639.06;6216841;28;20267;-67
2022/08/27 04:07:03;;;;;;;;;;;;;;;22.42;51.03;97645.19;6214548;28;19933;-67
2022/08/27 04:10:09;;;;;;;;;;;;;;;22.56;50.13;97641.13;6217722;28;19926;-67
2022/08/27 04:13:10;;;;;;;;;;;;;;;22.67;49.86;97644.53;6219742;28;20100;-66
2022/08/27 04:16:12;;;;;;;;;;;;;;;22.75;49.66;97644.59;6216032;28;19932;-67
2022/08/27 04:19:13;;;;;;;;;;;;;;;22.92;49.32;97650.91;6219121;28;20063;-67
2022/08/27 04:22:20;;;;;;;;;;;;;;;23.04;49.02;97642.47;6212932;28;19933;-67
2022/08/27 04:25:21;;;;;;;;;;;;;;;23.19;48.65;97648.06;6218208;28;20318;-68
2022/08/27 04:28:23;;;;;;;;;;;;;;;23.31;48.56;97646.78;6217899;28;20365;-67
2022/08/27 04:31:26;;;;;;;;;;;;;;;23.45;48.20;97647.19;6218524;28;20029;-66
2022/08/27 04:34:27;;;;;;;;;;;;;;;23.59;47.96;97649.25;6224267;28;19940;-66
2022/08/27 04:37:30;;;;;;;;;;;;;;;23.77;47.44;97651.03;6220504;28;19925;-66
2022/08/27 04:43:56;;;;;;;;;;;;;;;24.24;45.78;97653.13;6235992;28;20007;-66
2022/08/27 04:46:59;;;;;;;;;;;;;;;24.38;44.93;97649.78;6220885;28;19925;-67
2022/08/27 04:50:00;;;;;;;;;;;;;;;24.41;45.12;97652.13;6221148;28;20016;-67
2022/08/27 04:53:04;;;;;;;;;;;;;;;24.56;44.90;97658.53;6220831;28;19925;-67
2022/08/27 04:56:11;;;;;;;;;;;;;;;24.79;44.43;97658.69;6215120;28;19926;-66
2022/08/27 04:59:15;;;;;;;;;;;;;;;24.99;44.18;97663.72;6202274;28;19930;-66
2022/08/27 05:02:21;;;;;;;;;;;;;;;25.16;43.97;97659.16;6224088;28;19925;-67
2022/08/27 05:05:22;;;;;;;;;;;;;;;25.36;43.42;97659.63;6225564;28;20291;-66
2022/08/27 05:08:25;;;;;;;;;;;;;;;25.56;42.82;97671.66;6224219;28;19996;-66
2022/08/27 05:11:33;;;;;;;;;;;;;;;25.94;40.95;97664.59;6225713;28;20383;-66
2022/08/27 05:14:37;;;;;;;;;;;;;;;26.07;40.61;97665.88;6212065;28;20035;-69
2022/08/27 05:17:42;;;;;;;;;;;;;;;27.03;39.43;97667.16;6221273;28;19937;-69
2022/08/27 05:20:47;;;;;;;;;;;;;;;30.85;34.03;97680.75;6226788;28;20063;-63
2022/08/27 05:23:55;;;;;;;;;;;;;;;35.08;29.07;97698.63;6226752;28;19933;-64
2022/08/27 05:26:56;;;;;;;;;;;;;;;38.54;25.51;97700.66;6225712;28;19932;-63
2022/08/27 05:30:01;;;;;;;;;;;;;;;40.76;21.61;97697.06;6221826;28;19926;-65
2022/08/27 05:33:02;;;;;;;;;;;;;;;42.06;19.70;97703.00;6218468;28;20379;-65
2022/08/27 05:36:06;;;;;;;;;;;;;;;43.35;17.71;97706.63;6219859;28;19937;-65
2022/08/27 05:39:09;;;;;;;;;;;;;;;44.77;17.87;97709.66;6217828;28;19925;-64
2022/08/27 05:42:13;;;;;;;;;;;;;;;46.16;16.13;97694.09;6219571;28;19976;-63
2022/08/27 05:45:15;;;;;;;;;;;;;;;47.49;15.15;97706.88;6213833;28;20091;-64
2022/08/27 05:48:17;;;;;;;;;;;;;;;48.23;13.91;97695.03;6218387;28;19925;-68
2022/08/27 05:51:23;;;;;;;;;;;;;;;48.11;13.07;97696.44;6219001;28;19932;-63
2022/08/27 05:54:27;;;;;;;;;;;;;;;47.98;12.48;97697.41;6213199;28;19925;-64
2022/08/27 05:57:28;;;;;;;;;;;;;;;48.17;13.52;97704.72;6217735;28;19925;-63
2022/08/27 06:03:51;;;;;;;;;;;;;;;49.06;11.91;97694.09;6217897;28;20015;-64
2022/08/27 06:06:52;;;;;;;;;;;;;;;49.47;11.84;97698.31;6217790;28;19926;-65
2022/08/27 06:09:58;;;;;;;;;;;;;;;50.15;11.13;97693.59;6218596;28;19930;-65
2022/08/27 06:13:04;;;;;;;;;;;;;;;50.55;10.56;97690.34;6226030;28;19925;-63
2022/08/27 06:16:05;;;;;;;;;;;;;;;50.59;10.86;97685.69;6223759;28;19925;-64
2022/08/27 06:19:10;;;;;;;;;;;;;;;51.13;10.24;97687.72;6224290;28;20317;-64
2022/08/27 06:22:12;;;;;;;;;;;;;;;51.23;10.38;97692.09;6220255;28;19926;-64
2022/08/27 06:25:15;;;;;;;;;;;;;;;51.30;9.75;97683.91;6224168;28;20386;-63
2022/08/27 06:28:20;;;;;;;;;;;;;;;51.19;9.95;97681.56;6217017;28;19934;-66
2022/08/27 06:31:26;;;;;;;;;;;;;;;51.79;10.19;97687.66;6216308;28;20032;-64
2022/08/27 06:34:28;;;;;;;;;;;;;;;53.24;8.59;97700.13;6220445;28;19925;-63
2022/08/27 06:37:29;;;;;;;;;;;;;;;54.71;8.34;97682.03;6214038;28;19925;-64
2022/08/27 06:40:31;;;;;;;;;;;;;;;56.04;8.57;97690.97;6223185;28;19956;-64
2022/08/27 06:43:34;;;;;;;;;;;;;;;56.55;8.55;97691.75;6223542;28;19947;-63
2022/08/27 06:46:38;;;;;;;;;;;;;;;56.62;7.80;97677.69;6224139;28;20028;-63
2022/08/27 06:49:42;;;;;;;;;;;;;;;56.60;8.50;97674.44;6223482;28;19933;-63
2022/08/27 06:52:46;;;;;;;;;;;;;;;56.36;7.44;97678.53;6223867;28;20023;-63
2022/08/27 06:55:50;;;;;;;;;;;;;;;56.59;7.76;97672.81;6211983;28;19926;-63
2022/08/27 06:58:54;;;;;;;;;;;;;;;57.29;7.14;97672.03;6199041;28;19937;-62
2022/08/27 07:01:58;;;;;;;;;;;;;;;57.40;7.13;97674.16;6223022;28;19925;-63
2022/08/27 07:04:59;;;;;;;;;;;;;;;57.90;6.92;97671.75;6247333;28;20020;-63
2022/08/27 07:08:03;;;;;;;;;;;;;;;58.34;6.42;97676.50;6246040;28;20948;-63
2022/08/27 07:11:05;;;;;;;;;;;;;;;58.40;6.45;97669.28;6246912;28;19931;-63
2022/08/27 07:14:11;;;;;;;;;;;;;;;58.76;6.55;97664.59;6203199;28;19926;-63
2022/08/27 07:17:16;;;;;;;;;;;;;;;59.98;5.96;97671.28;6198145;28;20410;-63
2022/08/27 07:20:17;;;;;;;;;;;;;;;60.71;5.66;97672.72;6198580;28;19930;-63
2022/08/27 07:23:21;;;;;;;;;;;;;;;60.14;5.47;97679.38;6197939;28;19926;-63
2022/08/27 07:26:24;;;;;;;;;;;;;;;55.46;7.66;97660.13;6198401;28;19926;-63
2022/08/27 07:29:25;;;;;;;;;;;;;;;50.00;9.46;97636.22;6199121;28;20033;-64
2022/08/27 07:32:29;;;;;;;;;;;;;;;46.26;12.00;97610.41;6199770;28;19925;-62
2022/08/27 07:35:34;;;;;;;;;;;;;;;43.95;13.49;97610.09;6222824;28;19926;-62
2022/08/27 07:38:36;;;;;;;;;;;;;;;41.48;15.10;97598.47;6222301;28;20359;-63
2022/08/27 07:44:23;;;;;;;;;;;;;;;39.93;15.94;97606.97;6222176;28;19941;-63
2022/08/27 07:44:58;;;;;;;;;;;;;;;39.01;17.21;97600.94;6221495;28;20014;-63
2022/08/27 07:47:59;;;;;;;;;;;;;;;37.57;18.49;97601.41;6220986;28;19998;-63
2022/08/27 07:51:03;;;;;;;;;;;;;;;36.26;19.65;97593.56;6221746;28;19925;-63
2022/08/27 07:54:07;;;;;;;;;;;;;;;35.49;20.69;97601.03;6221499;28;20319;-62
2022/08/27 07:57:10;;;;;;;;;;;;;;;34.82;21.39;97606.91;6221743;28;19925;-62
2022/08/27 08:00:13;;;;;;;;;;;;;;;34.95;21.68;97605.00;6221651;28;19976;-63
2022/08/27 08:03:14;;;;;;;;;;;;;;;35.34;21.55;97603.47;6214947;28;20323;-62
2022/08/27 08:06:20;;;;;;;;;;;;;;;35.05;21.59;97606.13;6197604;28;20020;-63
2022/08/27 08:09:23;;;;;;;;;;;;;;;34.40;21.97;97608.84;6197368;28;19926;-64
2022/08/27 08:12:27;;;;;;;;;;;;;;;34.22;22.22;97604.28;6197376;28;19938;-64
2022/08/27 08:15:28;;;;;;;;;;;;;;;34.45;22.01;97599.94;6197129;28;19925;-63
2022/08/27 08:18:32;;;;;;;;;;;;;;;34.85;21.77;97605.63;6197343;28;19933;-63
2022/08/27 08:21:34;;;;;;;;;;;;;;;36.88;19.61;97607.22;6197745;28;19925;-63
2022/08/27 08:24:37;;;;;;;;;;;;;;;41.27;16.19;97611.47;6196081;28;19926;-63
2022/08/27 08:27:42;;;;;;;;;;;;;;;44.46;13.78;97619.63;6197334;28;19926;-64
2022/08/27 08:30:45;;;;;;;;;;;;;;;47.25;11.98;97621.59;6196995;28;19951;-64
2022/08/27 08:33:48;;;;;;;;;;;;;;;50.45;9.36;97620.75;6220285;28;19925;-64
2022/08/27 08:36:51;;;;;;;;;;;;;;;52.29;8.51;97637.91;6238622;28;19941;-64
2022/08/27 08:39:56;;;;;;;;;;;;;;;49.89;9.75;97624.56;6217580;28;19941;-64
2022/08/27 08:43:00;;;;;;;;;;;;;;;46.71;11.90;97610.47;6221492;28;19926;-64
2022/08/27 08:46:08;;;;;;;;;;;;;;;43.97;13.13;97596.75;6220723;28;19925;-63
2022/08/27 08:49:30;;;;;;;;;;;;;;;41.98;14.83;97590.25;6221270;28;19925;-63
2022/08/27 08:52:34;;;;;;;;;;;;;;;40.61;15.62;97596.59;6221263;28;19921;-62
2022/08/27 08:55:41;;;;;;;;;;;;;;;40.11;15.79;97589.91;6220203;28;19933;-63
2022/08/27 08:58:43;;;;;;;;;;;;;;;42.82;14.08;97589.13;6221147;28;19922;-63
2022/08/27 09:01:50;;;;;;;;;;;;;;;46.73;11.50;97599.81;6221180;28;19925;-63
2022/08/27 09:04:55;;;;;;;;;;;;;;;48.70;10.05;97608.69;6220887;28;19921;-63
2022/08/27 09:08:01;;;;;;;;;;;;;;;47.32;10.65;97608.03;6220593;28;20028;-63
2022/08/27 09:11:14;;;;;;;;;;;;;;;47.20;10.99;97599.47;6219656;28;19964;-64
2022/08/27 09:14:21;;;;;;;;;;;;;;;48.81;10.14;97606.34;6220138;28;19925;-63
2022/08/27 09:17:26;;;;;;;;;;;;;;;48.41;10.69;97598.16;6220947;28;19925;-63
2022/08/27 09:20:28;;;;;;;;;;;;;;;48.30;9.99;97597.69;6220189;28;19926;-63
2022/08/27 09:23:35;;;;;;;;;;;;;;;46.95;11.02;97582.28;6220464;28;20072;-63
2022/08/27 09:26:41;;;;;;;;;;;;;;;47.04;11.04;97585.13;6220772;28;19925;-63
2022/08/27 09:29:50;;;;;;;;;;;;;;;47.61;10.64;97588.00;6219773;28;19980;-63
2022/08/27 09:32:56;;;;;;;;;;;;;;;48.56;10.03;97584.56;6224066;28;19931;-63
2022/08/27 09:36:04;;;;;;;;;;;;;;;50.52;8.83;97595.81;6245097;28;19925;-63
2022/08/27 09:39:06;;;;;;;;;;;;;;;51.91;7.93;97588.63;6230862;28;19926;-63
2022/08/27 09:42:07;;;;;;;;;;;;;;;51.71;8.04;97583.97;6219703;28;19926;-62
2022/08/27 09:45:16;;;;;;;;;;;;;;;51.87;8.26;97587.69;6219103;28;19968;-64
2022/08/27 09:48:19;;;;;;;;;;;;;;;52.27;8.21;97582.13;6223164;28;20398;-63
2022/08/27 09:51:22;;;;;;;;;;;;;;;52.07;8.04;97585.94;6223868;28;19925;-64
2022/08/27 09:54:23;;;;;;;;;;;;;;;51.65;8.08;97581.38;6224861;28;20454;-64
2022/08/27 09:57:32;;;;;;;;;;;;;;;50.51;8.43;97574.59;6224720;28;19926;-63
2022/08/27 10:00:38;;;;;;;;;;;;;;;50.57;8.51;97573.22;6224512;28;20023;-63
2022/08/27 10:03:39;;;;;;;;;;;;;;;51.43;7.59;97574.25;6223623;28;20014;-63
2022/08/27 10:06:45;;;;;;;;;;;;;;;51.88;7.73;97578.09;6224959;28;20307;-63
2022/08/27 10:09:51;;;;;;;;;;;;;;;52.43;7.86;97570.94;6224675;28;20020;-63
2022/08/27 10:12:59;;;;;;;;;;;;;;;52.65;7.60;97565.94;6224684;28;19925;-63
2022/08/27 10:16:08;;;;;;;;;;;;;;;52.57;7.53;97564.09;6223416;28;20011;-63
2022/08/27 10:19:11;;;;;;;;;;;;;;;52.70;7.68;97554.47;6223734;28;19937;-63
2022/08/27 10:22:27;;;;;;;;;;;;;;;52.91;7.29;97557.84;6224492;28;20383;-63
2022/08/27 10:25:38;;;;;;;;;;;;;;;52.88;7.37;97547.31;6223871;28;19921;-63
2022/08/27 10:29:07;;;;;;;;;;;;;;;53.01;7.05;97550.91;6223736;28;19926;-63
2022/08/27 10:32:19;;;;;;;;;;;;;;;53.04;6.86;97549.38;6223991;28;19925;-64
2022/08/27 10:35:28;;;;;;;;;;;;;;;51.18;7.50;97536.13;6199639;28;19925;-63
2022/08/27 10:38:37;;;;;;;;;;;;;;;49.82;8.10;97534.75;6208448;28;19960;-62
2022/08/27 10:42:07;;;;;;;;;;;;;;;50.07;7.93;97546.94;6217112;28;19925;-63
2022/08/27 10:45:17;;;;;;;;;;;;;;;49.81;8.13;97544.31;6207481;28;19925;-63
2022/08/27 10:48:24;;;;;;;;;;;;;;;48.40;8.86;97541.50;6220880;28;19929;-62
2022/08/27 10:51:30;;;;;;;;;;;;;;;46.63;9.85;97533.25;6221382;28;19925;-64
2022/08/27 10:54:32;;;;;;;;;;;;;;;46.51;9.87;97533.00;6218960;28;19925;-63
2022/08/27 10:58:02;;;;;;;;;;;;;;;46.34;9.95;97534.53;6223620;28;19925;-62
2022/08/27 11:01:12;;;;;;;;;;;;;;;46.44;9.81;97532.63;6212876;28;20338;-63
2022/08/27 11:04:20;;;;;;;;;;;;;;;46.95;9.73;97536.88;6222881;28;20354;-63
2022/08/27 11:07:24;;;;;;;;;;;;;;;47.64;9.38;97544.72;6223063;28;20407;-63
2022/08/27 11:10:31;;;;;;;;;;;;;;;47.31;9.66;97544.25;6213672;28;20033;-64
2022/08/27 11:13:37;;;;;;;;;;;;;;;46.58;10.23;97541.72;6198522;28;19930;-64
2022/08/27 11:16:44;;;;;;;;;;;;;;;46.03;10.53;97533.59;6198519;28;20020;-62
2022/08/27 11:20:11;;;;;;;;;;;;;;;45.44;10.99;97528.75;6198761;28;19930;-63
2022/08/27 11:23:37;;;;;;;;;;;;;;;43.13;12.56;97532.59;6198616;28;20012;-63
2022/08/27 11:26:40;;;;;;;;;;;;;;;41.18;13.67;97519.28;6187553;28;19930;-63
2022/08/27 11:29:53;;;;;;;;;;;;;;;39.76;14.46;97519.03;6197626;28;20447;-63
2022/08/27 11:33:06;;;;;;;;;;;;;;;38.47;15.69;97513.06;6207587;28;19929;-63
2022/08/27 11:36:24;;;;;;;;;;;;;;;37.63;16.56;97517.19;6246362;28;20322;-63
2022/08/27 11:39:50;;;;;;;;;;;;;;;36.69;16.67;97516.19;6230226;28;19925;-63
2022/08/27 11:42:59;;;;;;;;;;;;;;;35.95;17.15;97521.75;6222448;28;19925;-64
2022/08/27 11:46:03;;;;;;;;;;;;;;;35.29;17.81;97513.91;6220956;28;19995;-63
2022/08/27 11:49:04;;;;;;;;;;;;;;;34.76;18.18;97520.38;6222077;28;20068;-63
2022/08/27 11:52:07;;;;;;;;;;;;;;;34.32;18.46;97519.84;6221851;28;20302;-63
2022/08/27 11:55:20;;;;;;;;;;;;;;;33.88;18.92;97518.41;6220442;28;20283;-63
2022/08/27 11:58:26;;;;;;;;;;;;;;;33.42;19.40;97528.88;6217016;28;19979;-66
2022/08/27 12:01:30;;;;;;;;;;;;;;;33.00;19.41;97527.91;6214162;28;21639;-63
2022/08/27 12:04:35;;;;;;;;;;;;;;;32.65;19.79;97532.03;6218976;28;19976;-64
2022/08/27 12:07:38;;;;;;;;;;;;;;;32.38;20.37;97533.28;6209861;28;19929;-64
2022/08/27 12:10:58;;;;;;;;;;;;;;;32.34;19.98;97526.63;6219081;28;19925;-65
2022/08/27 12:14:05;;;;;;;;;;;;;;;32.82;19.40;97537.72;6217744;28;20379;-64
2022/08/27 12:17:18;;;;;;;;;;;;;;;33.79;18.84;97537.03;6221097;28;19926;-64
2022/08/27 12:20:30;;;;;;;;;;;;;;;34.89;17.93;97540.34;6198021;28;19926;-64
2022/08/27 12:23:45;;;;;;;;;;;;;;;35.75;17.17;97538.63;6197064;28;19922;-63
2022/08/27 12:26:57;;;;;;;;;;;;;;;36.34;17.27;97541.09;6216357;28;19929;-64
2022/08/27 12:29:58;;;;;;;;;;;;;;;36.74;16.76;97543.66;6218497;28;19936;-64
2022/08/27 12:33:12;;;;;;;;;;;;;;;36.90;17.01;97550.22;6217163;28;20059;-64
2022/08/27 12:36:24;;;;;;;;;;;;;;;36.39;17.74;97543.91;6218316;28;19925;-64
2022/08/27 12:39:32;;;;;;;;;;;;;;;35.94;18.24;97550.22;6220176;28;20383;-64
2022/08/27 12:42:39;;;;;;;;;;;;;;;35.38;18.39;97543.63;6216743;28;20359;-64
2022/08/27 12:45:43;;;;;;;;;;;;;;;34.94;18.94;97543.19;6216595;28;20020;-64
2022/08/27 12:48:55;;;;;;;;;;;;;;;34.81;18.94;97545.09;6220017;28;19925;-64
2022/08/27 12:52:02;;;;;;;;;;;;;;;34.43;19.35;97538.16;6216689;28;19980;-64
2022/08/27 12:55:03;;;;;;;;;;;;;;;34.16;19.71;97545.13;6220977;28;20272;-64
2022/08/27 12:58:08;;;;;;;;;;;;;;;33.80;19.79;97543.31;6220985;28;19926;-64
2022/08/27 13:01:35;;;;;;;;;;;;;;;33.65;20.05;97541.00;6220166;28;19949;-64
2022/08/27 13:04:38;;;;;;;;;;;;;;;33.33;19.83;97541.19;6220727;28;19973;-64
2022/08/27 13:07:43;;;;;;;;;;;;;;;33.08;20.36;97547.53;6220676;28;20295;-65
2022/08/27 13:10:45;;;;;;;;;;;;;;;32.90;20.67;97536.59;6202022;28;19925;-65
2022/08/27 13:13:47;;;;;;;;;;;;;;;32.71;20.69;97540.38;6196637;28;20419;-65
2022/08/27 13:16:51;;;;;;;;;;;;;;;32.51;20.78;97540.53;6210694;28;20314;-64
2022/08/27 13:19:58;;;;;;;;;;;;;;;32.16;21.04;97544.56;6220131;28;19926;-64
2022/08/27 13:22:59;;;;;;;;;;;;;;;31.85;21.89;97548.09;6222803;28;19933;-64
2022/08/27 13:26:08;;;;;;;;;;;;;;;31.42;21.91;97550.59;6221310;28;19926;-63
2022/08/27 13:29:10;;;;;;;;;;;;;;;31.20;22.54;97548.16;6201283;28;20039;-62
2022/08/27 13:32:13;;;;;;;;;;;;;;;31.10;22.57;97550.47;6201182;28;19932;-64
2022/08/27 13:35:15;;;;;;;;;;;;;;;30.84;23.53;97551.38;6221704;28;19948;-64
2022/08/27 13:38:20;;;;;;;;;;;;;;;30.61;23.42;97546.38;6224833;28;19932;-64
2022/08/27 13:41:21;;;;;;;;;;;;;;;30.40;24.20;97551.00;6224623;28;19925;-64
2022/08/27 13:44:37;;;;;;;;;;;;;;;30.24;24.69;97545.97;6209983;28;19925;-63
2022/08/27 13:47:44;;;;;;;;;;;;;;;30.10;25.24;97549.69;6200393;28;20032;-64
2022/08/27 13:50:50;;;;;;;;;;;;;;;29.78;26.09;97552.16;6209335;28;19972;-63
2022/08/27 13:57:22;;;;;;;;;;;;;;;29.41;27.04;97550.72;6223237;28;19925;-64
2022/08/27 14:00:32;;;;;;;;;;;;;;;29.11;27.50;97550.19;6212722;28;20063;-64
2022/08/27 14:03:34;;;;;;;;;;;;;;;28.88;28.16;97545.84;6216720;28;20407;-63
2022/08/27 14:06:41;;;;;;;;;;;;;;;28.69;28.29;97552.81;6222250;28;19980;-63
2022/08/27 14:09:52;;;;;;;;;;;;;;;28.52;28.93;97557.69;6222650;28;20425;-63
2022/08/27 14:12:58;;;;;;;;;;;;;;;28.37;29.21;97560.47;6224201;28;19925;-64
2022/08/27 14:16:12;;;;;;;;;;;;;;;28.15;29.49;97562.34;6223556;28;19929;-68
2022/08/27 14:19:30;;;;;;;;;;;;;;;28.01;29.90;97555.13;6223570;28;20059;-67
2022/08/27 14:22:33;;;;;;;;;;;;;;;27.74;30.07;97568.38;6223608;28;20303;-62
2022/08/27 14:25:38;;;;;;;;;;;;;;;27.54;30.34;97565.44;6224214;28;19929;-68
2022/08/27 14:28:42;;;;;;;;;;;;;;;27.42;31.01;97568.81;6224372;28;19932;-63
2022/08/27 14:31:47;;;;;;;;;;;;;;;27.23;31.03;97573.78;6224416;28;19925;-62
2022/08/27 14:34:50;;;;;;;;;;;;;;;27.09;31.80;97577.25;6226917;28;19930;-62
2022/08/27 14:37:58;;;;;;;;;;;;;;;26.97;32.21;97578.78;6203653;28;19933;-62
2022/08/27 14:41:02;;;;;;;;;;;;;;;26.74;32.38;97579.69;6221983;28;19925;-62
2022/08/27 14:44:03;;;;;;;;;;;;;;;26.48;32.42;97590.03;6223677;28;19982;-62
2022/08/27 14:47:05;;;;;;;;;;;;;;;26.31;33.00;97589.34;6223000;28;20390;-62
2022/08/27 14:50:10;;;;;;;;;;;;;;;26.31;33.76;97606.38;6212615;28;20307;-62
2022/08/27 14:53:11;;;;;;;;;;;;;;;26.16;34.08;97594.69;6218958;28;19925;-62
2022/08/27 14:56:17;;;;;;;;;;;;;;;26.08;33.93;97610.94;6234234;28;19925;-62
2022/08/27 14:59:21;;;;;;;;;;;;;;;26.08;34.03;97606.38;6220932;28;19937;-64
2022/08/27 15:02:27;;;;;;;;;;;;;;;26.05;34.14;97605.91;6219060;28;19925;-63
2022/08/27 15:05:28;;;;;;;;;;;;;;;25.88;34.21;97614.09;6219835;28;19932;-62
2022/08/27 15:08:29;;;;;;;;;;;;;;;25.80;34.30;97613.28;6216956;28;20448;-62
2022/08/27 15:11:32;;;;;;;;;;;;;;;25.75;34.22;97621.88;6223164;28;19932;-63
2022/08/27 15:14:37;;;;;;;;;;;;;;;25.64;34.82;97624.97;6221341;28;19948;-63
2022/08/27 15:17:38;;;;;;;;;;;;;;;25.57;34.84;97624.84;6220196;28;19921;-62
2022/08/27 15:20:40;;;;;;;;;;;;;;;25.43;34.93;97626.44;6222745;28;19925;-63
2022/08/27 15:23:47;;;;;;;;;;;;;;;25.30;34.83;97628.81;6237003;28;19921;-63
2022/08/27 15:26:50;;;;;;;;;;;;;;;25.20;35.06;97626.34;6214603;28;19933;-62
2022/08/27 15:29:54;;;;;;;;;;;;;;;25.16;35.04;97632.25;6237056;28;19925;-63
2022/08/27 15:32:58;;;;;;;;;;;;;;;25.13;34.95;97643.31;6227845;28;20063;-62
2022/08/27 15:36:01;;;;;;;;;;;;;;;25.09;35.32;97649.06;6231073;28;19932;-62
2022/08/27 15:39:02;;;;;;;;;;;;;;;24.97;35.26;97642.38;6221501;28;20295;-63
2022/08/27 15:42:04;;;;;;;;;;;;;;;24.85;35.79;97651.78;6217556;28;20391;-73
2022/08/27 15:45:09;;;;;;;;;;;;;;;24.72;36.01;97648.81;6198473;28;19926;-63
2022/08/27 15:48:10;;;;;;;;;;;;;;;24.61;36.44;97645.44;6218788;28;20434;-64
2022/08/27 15:51:15;;;;;;;;;;;;;;;24.52;36.49;97646.47;6225875;28;19925;-62
2022/08/27 15:54:19;;;;;;;;;;;;;;;24.49;36.85;97657.56;6222529;28;19921;-63
2022/08/27 15:57:20;;;;;;;;;;;;;;;24.43;37.48;97663.63;6227064;28;19925;-63
2022/08/27 16:00:23;;;;;;;;;;;;;;;24.44;37.85;97670.66;6218032;28;19925;-63
2022/08/27 16:03:24;;;;;;;;;;;;;;;24.41;38.13;97670.97;6221901;28;20008;-63
2022/08/27 16:06:25;;;;;;;;;;;;;;;24.38;37.95;97676.69;6221229;28;19926;-63
2022/08/27 16:09:28;;;;;;;;;;;;;;;24.36;38.17;97674.16;6221303;28;19925;-63
2022/08/27 16:12:32;;;;;;;;;;;;;;;24.29;37.99;97672.28;6221444;28;20060;-63
2022/08/27 16:15:38;;;;;;;;;;;;;;;24.28;38.02;97676.00;6218941;28;20390;-64
2022/08/27 16:18:41;;;;;;;;;;;;;;;24.30;37.95;97676.69;6197481;28;20362;-63